sensor_id;sensor_type;location;lat;lon;timestamp;P1;durP1;ratioP1;P2;durP2;ratioP2
80621;SDS011;69980;51.914;7.526;2023-07-24T00:01:37;5.88;;;4.90;;
80621;SDS011;69980;51.914;7.526;2023-07-24T00:04:02;4.90;;;4.20;;
80621;SDS011;69980;51.914;7.526;2023-07-24T00:06:27;6.10;;;4.28;;
80621;SDS011;69980;51.914;7.526;2023-07-24T00:08:53;6.28;;;4.35;;
80621;SDS011;69980;51.914;7.526;2023-07-24T00:11:18;5.03;;;4.00;;
80621;SDS011;69980;51.914;7.526;2023-07-24T00:13:44;5.80;;;3.83;;
80621;SDS011;69980;51.914;7.526;2023-07-24T00:16:09;5.57;;;4.40;;
80621;SDS011;69980;51.914;7.526;2023-07-24T00:18:35;6.82;;;4.10;;
80621;SDS011;69980;51.914;7.526;2023-07-24T00:21:00;6.82;;;4.32;;
80621;SDS011;69980;51.914;7.526;2023-07-24T00:23:25;6.22;;;3.85;;
80621;SDS011;69980;51.914;7.526;2023-07-24T00:25:51;4.93;;;3.80;;
80621;SDS011;69980;51.914;7.526;2023-07-24T00:28:16;5.20;;;4.30;;
80621;SDS011;69980;51.914;7.526;2023-07-24T00:30:42;6.97;;;4.20;;
80621;SDS011;69980;51.914;7.526;2023-07-24T00:33:07;5.30;;;4.13;;
80621;SDS011;69980;51.914;7.526;2023-07-24T00:35:35;5.28;;;3.58;;
80621;SDS011;69980;51.914;7.526;2023-07-24T00:38:00;6.00;;;3.60;;
80621;SDS011;69980;51.914;7.526;2023-07-24T00:40:26;6.90;;;4.03;;
80621;SDS011;69980;51.914;7.526;2023-07-24T00:42:51;6.07;;;3.80;;
80621;SDS011;69980;51.914;7.526;2023-07-24T00:45:16;5.68;;;3.60;;
80621;SDS011;69980;51.914;7.526;2023-07-24T00:47:44;7.07;;;3.60;;
80621;SDS011;69980;51.914;7.526;2023-07-24T00:50:10;5.55;;;3.17;;
80621;SDS011;69980;51.914;7.526;2023-07-24T00:52:36;5.65;;;3.25;;
80621;SDS011;69980;51.914;7.526;2023-07-24T00:55:02;4.72;;;3.05;;
80621;SDS011;69980;51.914;7.526;2023-07-24T00:57:27;5.00;;;2.85;;
80621;SDS011;69980;51.914;7.526;2023-07-24T00:59:53;5.00;;;3.10;;
80621;SDS011;69980;51.914;7.526;2023-07-24T01:02:18;5.47;;;2.97;;
80621;SDS011;69980;51.914;7.526;2023-07-24T01:04:44;4.63;;;2.90;;
80621;SDS011;69980;51.914;7.526;2023-07-24T01:07:09;6.53;;;2.97;;
80621;SDS011;69980;51.914;7.526;2023-07-24T01:09:34;5.00;;;3.10;;
80621;SDS011;69980;51.914;7.526;2023-07-24T01:12:04;4.78;;;2.72;;
80621;SDS011;69980;51.914;7.526;2023-07-24T01:14:50;5.47;;;2.83;;
80621;SDS011;69980;51.914;7.526;2023-07-24T01:17:20;5.70;;;2.90;;
80621;SDS011;69980;51.914;7.526;2023-07-24T01:19:48;5.00;;;2.72;;
80621;SDS011;69980;51.914;7.526;2023-07-24T01:22:31;6.32;;;2.72;;
80621;SDS011;69980;51.914;7.526;2023-07-24T01:27:33;5.60;;;2.95;;
80621;SDS011;69980;51.914;7.526;2023-07-24T01:29:58;5.00;;;2.88;;
80621;SDS011;69980;51.914;7.526;2023-07-24T01:32:24;4.55;;;2.50;;
80621;SDS011;69980;51.914;7.526;2023-07-24T01:34:50;6.50;;;2.80;;
80621;SDS011;69980;51.914;7.526;2023-07-24T01:37:16;5.43;;;3.08;;
80621;SDS011;69980;51.914;7.526;2023-07-24T01:39:41;4.20;;;2.70;;
80621;SDS011;69980;51.914;7.526;2023-07-24T01:42:07;6.28;;;2.90;;
80621;SDS011;69980;51.914;7.526;2023-07-24T01:44:33;5.22;;;3.05;;
80621;SDS011;69980;51.914;7.526;2023-07-24T01:46:58;9.95;;;3.45;;
80621;SDS011;69980;51.914;7.526;2023-07-24T01:49:23;6.32;;;3.53;;
80621;SDS011;69980;51.914;7.526;2023-07-24T01:51:49;5.22;;;2.90;;
80621;SDS011;69980;51.914;7.526;2023-07-24T01:54:14;6.57;;;3.10;;
80621;SDS011;69980;51.914;7.526;2023-07-24T01:56:39;4.45;;;3.00;;
80621;SDS011;69980;51.914;7.526;2023-07-24T01:59:05;6.47;;;3.30;;
80621;SDS011;69980;51.914;7.526;2023-07-24T02:01:30;5.43;;;3.28;;
80621;SDS011;69980;51.914;7.526;2023-07-24T02:03:55;4.85;;;3.25;;
80621;SDS011;69980;51.914;7.526;2023-07-24T02:06:21;4.70;;;3.05;;
80621;SDS011;69980;51.914;7.526;2023-07-24T02:08:46;6.70;;;3.22;;
80621;SDS011;69980;51.914;7.526;2023-07-24T02:11:11;5.65;;;3.05;;
80621;SDS011;69980;51.914;7.526;2023-07-24T02:13:37;6.18;;;3.10;;
80621;SDS011;69980;51.914;7.526;2023-07-24T02:16:02;4.88;;;3.20;;
80621;SDS011;69980;51.914;7.526;2023-07-24T02:18:27;6.18;;;3.47;;
80621;SDS011;69980;51.914;7.526;2023-07-24T02:20:52;5.88;;;3.13;;
80621;SDS011;69980;51.914;7.526;2023-07-24T02:23:18;6.47;;;3.30;;
80621;SDS011;69980;51.914;7.526;2023-07-24T02:25:43;8.82;;;2.95;;
80621;SDS011;69980;51.914;7.526;2023-07-24T02:28:08;5.07;;;3.40;;
80621;SDS011;69980;51.914;7.526;2023-07-24T02:30:37;5.72;;;3.33;;
80621;SDS011;69980;51.914;7.526;2023-07-24T02:33:03;4.95;;;2.72;;
80621;SDS011;69980;51.914;7.526;2023-07-24T02:35:28;6.25;;;3.58;;
80621;SDS011;69980;51.914;7.526;2023-07-24T02:37:54;5.43;;;3.08;;
80621;SDS011;69980;51.914;7.526;2023-07-24T02:40:19;5.07;;;3.08;;
80621;SDS011;69980;51.914;7.526;2023-07-24T02:42:44;6.60;;;2.97;;
80621;SDS011;69980;51.914;7.526;2023-07-24T02:45:09;6.60;;;3.20;;
80621;SDS011;69980;51.914;7.526;2023-07-24T02:47:35;6.28;;;3.22;;
80621;SDS011;69980;51.914;7.526;2023-07-24T02:50:00;5.72;;;3.35;;
80621;SDS011;69980;51.914;7.526;2023-07-24T02:52:25;7.93;;;3.60;;
80621;SDS011;69980;51.914;7.526;2023-07-24T02:54:51;5.82;;;3.25;;
80621;SDS011;69980;51.914;7.526;2023-07-24T02:57:16;6.00;;;3.25;;
80621;SDS011;69980;51.914;7.526;2023-07-24T02:59:41;5.20;;;3.13;;
80621;SDS011;69980;51.914;7.526;2023-07-24T03:02:06;5.63;;;2.78;;
80621;SDS011;69980;51.914;7.526;2023-07-24T03:04:32;5.20;;;3.10;;
80621;SDS011;69980;51.914;7.526;2023-07-24T03:06:57;7.47;;;3.50;;
80621;SDS011;69980;51.914;7.526;2023-07-24T03:09:22;6.38;;;3.53;;
80621;SDS011;69980;51.914;7.526;2023-07-24T03:11:48;6.10;;;3.38;;
80621;SDS011;69980;51.914;7.526;2023-07-24T03:14:13;9.10;;;3.45;;
80621;SDS011;69980;51.914;7.526;2023-07-24T03:16:38;8.40;;;3.28;;
80621;SDS011;69980;51.914;7.526;2023-07-24T03:19:03;5.30;;;3.30;;
80621;SDS011;69980;51.914;7.526;2023-07-24T03:21:29;8.65;;;3.45;;
80621;SDS011;69980;51.914;7.526;2023-07-24T03:23:54;4.97;;;3.13;;
80621;SDS011;69980;51.914;7.526;2023-07-24T03:26:19;6.57;;;3.45;;
80621;SDS011;69980;51.914;7.526;2023-07-24T03:28:45;5.97;;;2.92;;
80621;SDS011;69980;51.914;7.526;2023-07-24T03:31:10;5.57;;;3.35;;
80621;SDS011;69980;51.914;7.526;2023-07-24T03:33:35;8.45;;;3.40;;
80621;SDS011;69980;51.914;7.526;2023-07-24T03:36:00;5.93;;;2.80;;
80621;SDS011;69980;51.914;7.526;2023-07-24T03:38:26;4.80;;;2.80;;
80621;SDS011;69980;51.914;7.526;2023-07-24T03:40:51;5.93;;;3.22;;
80621;SDS011;69980;51.914;7.526;2023-07-24T03:43:16;6.93;;;3.30;;
80621;SDS011;69980;51.914;7.526;2023-07-24T03:45:42;5.38;;;3.10;;
80621;SDS011;69980;51.914;7.526;2023-07-24T03:48:07;8.00;;;3.40;;
80621;SDS011;69980;51.914;7.526;2023-07-24T03:50:32;8.10;;;3.40;;
80621;SDS011;69980;51.914;7.526;2023-07-24T03:52:57;4.97;;;3.00;;
80621;SDS011;69980;51.914;7.526;2023-07-24T03:55:23;4.32;;;2.97;;
80621;SDS011;69980;51.914;7.526;2023-07-24T03:57:48;5.68;;;3.35;;
80621;SDS011;69980;51.914;7.526;2023-07-24T04:00:13;5.65;;;3.50;;
80621;SDS011;69980;51.914;7.526;2023-07-24T04:02:39;6.75;;;3.22;;
80621;SDS011;69980;51.914;7.526;2023-07-24T04:05:04;6.68;;;3.35;;
80621;SDS011;69980;51.914;7.526;2023-07-24T04:07:30;7.40;;;3.05;;
80621;SDS011;69980;51.914;7.526;2023-07-24T04:09:55;11.98;;;3.95;;
80621;SDS011;69980;51.914;7.526;2023-07-24T04:12:20;9.27;;;3.50;;
80621;SDS011;69980;51.914;7.526;2023-07-24T04:14:45;5.93;;;3.47;;
80621;SDS011;69980;51.914;7.526;2023-07-24T04:17:11;7.00;;;3.70;;
80621;SDS011;69980;51.914;7.526;2023-07-24T04:19:36;5.65;;;3.60;;
80621;SDS011;69980;51.914;7.526;2023-07-24T04:22:01;6.65;;;3.58;;
80621;SDS011;69980;51.914;7.526;2023-07-24T04:24:27;8.32;;;4.10;;
80621;SDS011;69980;51.914;7.526;2023-07-24T04:26:52;10.30;;;4.28;;
80621;SDS011;69980;51.914;7.526;2023-07-24T04:29:17;8.18;;;4.10;;
80621;SDS011;69980;51.914;7.526;2023-07-24T04:31:42;7.28;;;3.90;;
80621;SDS011;69980;51.914;7.526;2023-07-24T04:34:08;7.40;;;4.07;;
80621;SDS011;69980;51.914;7.526;2023-07-24T04:36:33;8.38;;;3.67;;
80621;SDS011;69980;51.914;7.526;2023-07-24T04:38:58;7.35;;;4.25;;
80621;SDS011;69980;51.914;7.526;2023-07-24T04:41:24;6.88;;;3.80;;
80621;SDS011;69980;51.914;7.526;2023-07-24T04:43:49;6.82;;;3.95;;
80621;SDS011;69980;51.914;7.526;2023-07-24T04:46:14;10.27;;;4.30;;
80621;SDS011;69980;51.914;7.526;2023-07-24T04:48:39;6.05;;;3.90;;
80621;SDS011;69980;51.914;7.526;2023-07-24T04:51:05;6.35;;;3.47;;
80621;SDS011;69980;51.914;7.526;2023-07-24T04:53:30;9.20;;;4.40;;
80621;SDS011;69980;51.914;7.526;2023-07-24T04:55:55;6.70;;;3.78;;
80621;SDS011;69980;51.914;7.526;2023-07-24T04:58:21;7.20;;;4.88;;
80621;SDS011;69980;51.914;7.526;2023-07-24T05:00:47;6.75;;;4.20;;
80621;SDS011;69980;51.914;7.526;2023-07-24T05:03:12;6.35;;;3.70;;
80621;SDS011;69980;51.914;7.526;2023-07-24T05:05:37;7.68;;;4.10;;
80621;SDS011;69980;51.914;7.526;2023-07-24T05:08:03;5.63;;;3.97;;
80621;SDS011;69980;51.914;7.526;2023-07-24T05:10:29;6.90;;;4.50;;
80621;SDS011;69980;51.914;7.526;2023-07-24T05:12:54;6.30;;;3.90;;
80621;SDS011;69980;51.914;7.526;2023-07-24T05:15:19;7.32;;;3.85;;
80621;SDS011;69980;51.914;7.526;2023-07-24T05:17:44;6.45;;;3.70;;
80621;SDS011;69980;51.914;7.526;2023-07-24T05:20:10;7.07;;;4.68;;
80621;SDS011;69980;51.914;7.526;2023-07-24T05:22:36;7.45;;;4.78;;
80621;SDS011;69980;51.914;7.526;2023-07-24T05:25:01;5.88;;;4.00;;
80621;SDS011;69980;51.914;7.526;2023-07-24T05:27:26;5.63;;;4.10;;
80621;SDS011;69980;51.914;7.526;2023-07-24T05:29:51;7.32;;;4.45;;
80621;SDS011;69980;51.914;7.526;2023-07-24T05:32:17;6.90;;;4.47;;
80621;SDS011;69980;51.914;7.526;2023-07-24T05:34:42;6.80;;;4.18;;
80621;SDS011;69980;51.914;7.526;2023-07-24T05:37:07;7.57;;;3.90;;
80621;SDS011;69980;51.914;7.526;2023-07-24T05:39:33;5.55;;;3.83;;
80621;SDS011;69980;51.914;7.526;2023-07-24T05:41:58;6.05;;;3.95;;
80621;SDS011;69980;51.914;7.526;2023-07-24T05:44:23;7.28;;;4.28;;
80621;SDS011;69980;51.914;7.526;2023-07-24T05:46:48;5.78;;;4.30;;
80621;SDS011;69980;51.914;7.526;2023-07-24T05:49:14;5.63;;;4.13;;
80621;SDS011;69980;51.914;7.526;2023-07-24T05:51:39;6.82;;;4.50;;
80621;SDS011;69980;51.914;7.526;2023-07-24T05:54:04;7.43;;;4.40;;
80621;SDS011;69980;51.914;7.526;2023-07-24T05:56:30;7.57;;;4.22;;
80621;SDS011;69980;51.914;7.526;2023-07-24T05:58:55;8.48;;;4.68;;
80621;SDS011;69980;51.914;7.526;2023-07-24T06:01:20;5.63;;;4.28;;
80621;SDS011;69980;51.914;7.526;2023-07-24T06:03:45;7.47;;;4.90;;
80621;SDS011;69980;51.914;7.526;2023-07-24T06:06:11;7.25;;;4.80;;
80621;SDS011;69980;51.914;7.526;2023-07-24T06:08:36;8.02;;;4.90;;
80621;SDS011;69980;51.914;7.526;2023-07-24T06:11:01;7.63;;;5.03;;
80621;SDS011;69980;51.914;7.526;2023-07-24T06:13:26;8.68;;;5.20;;
80621;SDS011;69980;51.914;7.526;2023-07-24T06:15:52;6.82;;;5.22;;
80621;SDS011;69980;51.914;7.526;2023-07-24T06:18:17;7.22;;;5.03;;
80621;SDS011;69980;51.914;7.526;2023-07-24T06:20:43;8.45;;;5.97;;
80621;SDS011;69980;51.914;7.526;2023-07-24T06:23:08;40.88;;;8.40;;
80621;SDS011;69980;51.914;7.526;2023-07-24T06:25:34;17.63;;;6.57;;
80621;SDS011;69980;51.914;7.526;2023-07-24T06:28:02;23.08;;;7.63;;
80621;SDS011;69980;51.914;7.526;2023-07-24T06:30:27;51.88;;;9.93;;
80621;SDS011;69980;51.914;7.526;2023-07-24T06:32:53;11.25;;;6.95;;
80621;SDS011;69980;51.914;7.526;2023-07-24T06:35:18;32.22;;;8.27;;
80621;SDS011;69980;51.914;7.526;2023-07-24T06:37:43;8.82;;;7.15;;
80621;SDS011;69980;51.914;7.526;2023-07-24T06:40:09;8.13;;;6.57;;
80621;SDS011;69980;51.914;7.526;2023-07-24T06:42:34;155.48;;;17.55;;
80621;SDS011;69980;51.914;7.526;2023-07-24T06:44:59;34.42;;;9.52;;
80621;SDS011;69980;51.914;7.526;2023-07-24T06:47:25;322.60;;;30.58;;
80621;SDS011;69980;51.914;7.526;2023-07-24T06:49:50;31.70;;;8.73;;
80621;SDS011;69980;51.914;7.526;2023-07-24T06:52:16;26.00;;;8.43;;
80621;SDS011;69980;51.914;7.526;2023-07-24T06:54:41;9.82;;;6.95;;
80621;SDS011;69980;51.914;7.526;2023-07-24T06:57:06;9.55;;;5.93;;
80621;SDS011;69980;51.914;7.526;2023-07-24T06:59:32;8.90;;;6.30;;
80621;SDS011;69980;51.914;7.526;2023-07-24T07:01:57;7.05;;;5.75;;
80621;SDS011;69980;51.914;7.526;2023-07-24T07:04:22;7.80;;;6.25;;
80621;SDS011;69980;51.914;7.526;2023-07-24T07:06:47;6.90;;;5.70;;
80621;SDS011;69980;51.914;7.526;2023-07-24T07:09:13;6.38;;;5.35;;
80621;SDS011;69980;51.914;7.526;2023-07-24T07:11:38;11.93;;;9.57;;
80621;SDS011;69980;51.914;7.526;2023-07-24T07:14:03;9.35;;;7.13;;
80621;SDS011;69980;51.914;7.526;2023-07-24T07:16:29;6.60;;;5.22;;
80621;SDS011;69980;51.914;7.526;2023-07-24T07:18:54;6.45;;;4.57;;
80621;SDS011;69980;51.914;7.526;2023-07-24T07:21:19;6.65;;;4.60;;
80621;SDS011;69980;51.914;7.526;2023-07-24T07:23:44;5.82;;;4.82;;
80621;SDS011;69980;51.914;7.526;2023-07-24T07:26:10;8.60;;;6.63;;
80621;SDS011;69980;51.914;7.526;2023-07-24T07:28:35;7.10;;;5.60;;
80621;SDS011;69980;51.914;7.526;2023-07-24T07:31:00;8.48;;;6.88;;
80621;SDS011;69980;51.914;7.526;2023-07-24T07:33:26;7.55;;;6.00;;
80621;SDS011;69980;51.914;7.526;2023-07-24T07:35:51;7.00;;;6.00;;
80621;SDS011;69980;51.914;7.526;2023-07-24T07:38:16;6.43;;;5.70;;
80621;SDS011;69980;51.914;7.526;2023-07-24T07:40:42;8.48;;;6.07;;
80621;SDS011;69980;51.914;7.526;2023-07-24T07:43:07;7.03;;;6.32;;
80621;SDS011;69980;51.914;7.526;2023-07-24T07:45:32;7.85;;;6.18;;
80621;SDS011;69980;51.914;7.526;2023-07-24T07:47:58;6.78;;;6.07;;
80621;SDS011;69980;51.914;7.526;2023-07-24T07:50:23;6.53;;;5.72;;
80621;SDS011;69980;51.914;7.526;2023-07-24T07:52:49;8.35;;;5.70;;
80621;SDS011;69980;51.914;7.526;2023-07-24T07:55:15;7.70;;;6.00;;
80621;SDS011;69980;51.914;7.526;2023-07-24T07:57:40;6.55;;;4.28;;
80621;SDS011;69980;51.914;7.526;2023-07-24T08:00:06;3.72;;;2.50;;
80621;SDS011;69980;51.914;7.526;2023-07-24T08:02:31;2.80;;;1.90;;
80621;SDS011;69980;51.914;7.526;2023-07-24T08:04:57;3.88;;;2.00;;
80621;SDS011;69980;51.914;7.526;2023-07-24T08:07:23;3.10;;;1.58;;
80621;SDS011;69980;51.914;7.526;2023-07-24T08:09:49;2.80;;;1.70;;
80621;SDS011;69980;51.914;7.526;2023-07-24T08:12:14;2.78;;;1.85;;
80621;SDS011;69980;51.914;7.526;2023-07-24T08:14:39;4.43;;;2.20;;
80621;SDS011;69980;51.914;7.526;2023-07-24T08:17:04;2.50;;;1.70;;
80621;SDS011;69980;51.914;7.526;2023-07-24T08:19:30;4.43;;;1.98;;
80621;SDS011;69980;51.914;7.526;2023-07-24T08:21:55;3.13;;;1.80;;
80621;SDS011;69980;51.914;7.526;2023-07-24T08:24:22;2.83;;;1.92;;
80621;SDS011;69980;51.914;7.526;2023-07-24T08:26:47;2.92;;;1.95;;
80621;SDS011;69980;51.914;7.526;2023-07-24T08:29:15;4.03;;;2.20;;
80621;SDS011;69980;51.914;7.526;2023-07-24T08:31:42;4.80;;;2.20;;
80621;SDS011;69980;51.914;7.526;2023-07-24T08:34:07;4.65;;;2.25;;
80621;SDS011;69980;51.914;7.526;2023-07-24T08:36:35;3.50;;;2.42;;
80621;SDS011;69980;51.914;7.526;2023-07-24T08:39:01;3.50;;;2.25;;
80621;SDS011;69980;51.914;7.526;2023-07-24T08:41:28;3.30;;;2.17;;
80621;SDS011;69980;51.914;7.526;2023-07-24T08:43:53;2.60;;;1.90;;
80621;SDS011;69980;51.914;7.526;2023-07-24T08:46:20;3.00;;;2.00;;
80621;SDS011;69980;51.914;7.526;2023-07-24T08:48:46;3.08;;;1.77;;
80621;SDS011;69980;51.914;7.526;2023-07-24T08:51:12;3.00;;;2.03;;
80621;SDS011;69980;51.914;7.526;2023-07-24T08:53:40;2.78;;;1.65;;
80621;SDS011;69980;51.914;7.526;2023-07-24T08:56:07;2.25;;;1.45;;
80621;SDS011;69980;51.914;7.526;2023-07-24T08:58:33;2.85;;;1.65;;
80621;SDS011;69980;51.914;7.526;2023-07-24T09:00:59;2.85;;;1.75;;
80621;SDS011;69980;51.914;7.526;2023-07-24T09:03:25;2.75;;;1.55;;
80621;SDS011;69980;51.914;7.526;2023-07-24T09:05:51;4.03;;;1.50;;
80621;SDS011;69980;51.914;7.526;2023-07-24T09:08:17;2.40;;;1.40;;
80621;SDS011;69980;51.914;7.526;2023-07-24T09:10:42;3.35;;;1.50;;
80621;SDS011;69980;51.914;7.526;2023-07-24T09:13:07;2.20;;;1.50;;
80621;SDS011;69980;51.914;7.526;2023-07-24T09:15:39;2.00;;;1.30;;
80621;SDS011;69980;51.914;7.526;2023-07-24T09:18:09;2.45;;;1.35;;
80621;SDS011;69980;51.914;7.526;2023-07-24T09:20:39;2.25;;;1.40;;
80621;SDS011;69980;51.914;7.526;2023-07-24T09:23:07;2.20;;;1.40;;
80621;SDS011;69980;51.914;7.526;2023-07-24T09:25:33;2.08;;;1.30;;
80621;SDS011;69980;51.914;7.526;2023-07-24T09:28:01;4.82;;;1.73;;
80621;SDS011;69980;51.914;7.526;2023-07-24T09:30:34;2.78;;;1.52;;
80621;SDS011;69980;51.914;7.526;2023-07-24T09:32:59;6.95;;;1.60;;
80621;SDS011;69980;51.914;7.526;2023-07-24T09:35:25;2.85;;;1.50;;
80621;SDS011;69980;51.914;7.526;2023-07-24T09:37:50;3.15;;;1.67;;
80621;SDS011;69980;51.914;7.526;2023-07-24T09:40:15;3.97;;;2.03;;
80621;SDS011;69980;51.914;7.526;2023-07-24T09:42:41;17.50;;;2.92;;
80621;SDS011;69980;51.914;7.526;2023-07-24T09:45:06;9.75;;;2.40;;
80621;SDS011;69980;51.914;7.526;2023-07-24T09:47:32;14.25;;;2.85;;
80621;SDS011;69980;51.914;7.526;2023-07-24T09:49:58;11.10;;;2.30;;
80621;SDS011;69980;51.914;7.526;2023-07-24T09:52:24;8.43;;;2.63;;
80621;SDS011;69980;51.914;7.526;2023-07-24T09:55:05;7.60;;;1.90;;
80621;SDS011;69980;51.914;7.526;2023-07-24T09:57:35;3.10;;;1.88;;
80621;SDS011;69980;51.914;7.526;2023-07-24T10:00:01;5.30;;;2.60;;
80621;SDS011;69980;51.914;7.526;2023-07-24T10:02:27;4.78;;;2.20;;
80621;SDS011;69980;51.914;7.526;2023-07-24T10:04:53;5.22;;;2.00;;
80621;SDS011;69980;51.914;7.526;2023-07-24T10:07:19;4.55;;;2.00;;
80621;SDS011;69980;51.914;7.526;2023-07-24T10:09:44;3.25;;;2.10;;
80621;SDS011;69980;51.914;7.526;2023-07-24T10:12:09;3.05;;;1.73;;
80621;SDS011;69980;51.914;7.526;2023-07-24T10:14:35;3.28;;;2.10;;
80621;SDS011;69980;51.914;7.526;2023-07-24T10:17:01;4.35;;;2.15;;
80621;SDS011;69980;51.914;7.526;2023-07-24T10:19:34;3.08;;;1.83;;
80621;SDS011;69980;51.914;7.526;2023-07-24T10:22:00;3.58;;;1.90;;
80621;SDS011;69980;51.914;7.526;2023-07-24T10:24:29;2.75;;;1.70;;
80621;SDS011;69980;51.914;7.526;2023-07-24T10:26:57;3.55;;;1.67;;
80621;SDS011;69980;51.914;7.526;2023-07-24T10:29:26;2.67;;;1.67;;
80621;SDS011;69980;51.914;7.526;2023-07-24T10:31:52;4.75;;;2.40;;
80621;SDS011;69980;51.914;7.526;2023-07-24T10:34:18;4.00;;;2.55;;
80621;SDS011;69980;51.914;7.526;2023-07-24T10:36:43;4.10;;;2.60;;
80621;SDS011;69980;51.914;7.526;2023-07-24T10:39:13;5.50;;;3.00;;
80621;SDS011;69980;51.914;7.526;2023-07-24T10:41:42;3.95;;;2.40;;
80621;SDS011;69980;51.914;7.526;2023-07-24T10:44:07;3.95;;;2.72;;
80621;SDS011;69980;51.914;7.526;2023-07-24T10:46:37;4.22;;;2.60;;
80621;SDS011;69980;51.914;7.526;2023-07-24T10:49:07;3.70;;;2.40;;
80621;SDS011;69980;51.914;7.526;2023-07-24T10:51:32;3.15;;;2.17;;
80621;SDS011;69980;51.914;7.526;2023-07-24T10:53:58;3.72;;;2.15;;
80621;SDS011;69980;51.914;7.526;2023-07-24T10:56:24;5.35;;;2.30;;
80621;SDS011;69980;51.914;7.526;2023-07-24T10:58:49;3.05;;;2.10;;
80621;SDS011;69980;51.914;7.526;2023-07-24T11:01:15;4.50;;;2.10;;
80621;SDS011;69980;51.914;7.526;2023-07-24T11:03:42;4.00;;;1.80;;
80621;SDS011;69980;51.914;7.526;2023-07-24T11:06:17;4.38;;;1.83;;
80621;SDS011;69980;51.914;7.526;2023-07-24T11:08:53;3.17;;;1.80;;
80621;SDS011;69980;51.914;7.526;2023-07-24T11:11:19;2.85;;;1.60;;
80621;SDS011;69980;51.914;7.526;2023-07-24T11:13:45;3.15;;;1.90;;
80621;SDS011;69980;51.914;7.526;2023-07-24T11:16:10;3.53;;;1.70;;
80621;SDS011;69980;51.914;7.526;2023-07-24T11:18:48;3.58;;;1.58;;
80621;SDS011;69980;51.914;7.526;2023-07-24T11:21:14;3.05;;;2.10;;
80621;SDS011;69980;51.914;7.526;2023-07-24T11:23:49;3.58;;;1.80;;
80621;SDS011;69980;51.914;7.526;2023-07-24T11:26:19;4.18;;;1.70;;
80621;SDS011;69980;51.914;7.526;2023-07-24T11:28:49;3.28;;;2.00;;
80621;SDS011;69980;51.914;7.526;2023-07-24T11:31:16;4.63;;;1.88;;
80621;SDS011;69980;51.914;7.526;2023-07-24T11:33:42;2.90;;;2.00;;
80621;SDS011;69980;51.914;7.526;2023-07-24T11:36:08;3.40;;;1.85;;
80621;SDS011;69980;51.914;7.526;2023-07-24T11:38:35;3.15;;;1.55;;
80621;SDS011;69980;51.914;7.526;2023-07-24T11:41:00;3.60;;;1.70;;
80621;SDS011;69980;51.914;7.526;2023-07-24T11:43:26;3.55;;;1.67;;
80621;SDS011;69980;51.914;7.526;2023-07-24T11:45:52;2.67;;;1.30;;
80621;SDS011;69980;51.914;7.526;2023-07-24T11:48:18;2.88;;;1.40;;
80621;SDS011;69980;51.914;7.526;2023-07-24T11:50:44;2.92;;;1.67;;
80621;SDS011;69980;51.914;7.526;2023-07-24T11:53:21;2.15;;;1.33;;
80621;SDS011;69980;51.914;7.526;2023-07-24T11:55:51;2.20;;;1.17;;
80621;SDS011;69980;51.914;7.526;2023-07-24T11:58:17;3.92;;;1.30;;
80621;SDS011;69980;51.914;7.526;2023-07-24T12:00:43;2.95;;;1.60;;
80621;SDS011;69980;51.914;7.526;2023-07-24T12:03:08;3.22;;;1.45;;
80621;SDS011;69980;51.914;7.526;2023-07-24T12:05:37;2.20;;;1.30;;
80621;SDS011;69980;51.914;7.526;2023-07-24T12:08:06;2.60;;;1.73;;
80621;SDS011;69980;51.914;7.526;2023-07-24T12:10:32;2.63;;;1.90;;
80621;SDS011;69980;51.914;7.526;2023-07-24T12:13:03;3.10;;;1.73;;
80621;SDS011;69980;51.914;7.526;2023-07-24T12:15:34;2.63;;;1.50;;
80621;SDS011;69980;51.914;7.526;2023-07-24T12:18:00;2.88;;;1.58;;
80621;SDS011;69980;51.914;7.526;2023-07-24T12:20:26;2.40;;;1.70;;
80621;SDS011;69980;51.914;7.526;2023-07-24T12:22:52;3.60;;;1.77;;
80621;SDS011;69980;51.914;7.526;2023-07-24T12:25:17;3.28;;;1.98;;
80621;SDS011;69980;51.914;7.526;2023-07-24T12:27:43;4.07;;;1.92;;
80621;SDS011;69980;51.914;7.526;2023-07-24T12:30:08;3.40;;;2.10;;
80621;SDS011;69980;51.914;7.526;2023-07-24T12:32:34;5.07;;;1.95;;
80621;SDS011;69980;51.914;7.526;2023-07-24T12:35:00;4.65;;;2.20;;
80621;SDS011;69980;51.914;7.526;2023-07-24T12:37:26;4.50;;;2.50;;
80621;SDS011;69980;51.914;7.526;2023-07-24T12:39:51;3.20;;;2.22;;
80621;SDS011;69980;51.914;7.526;2023-07-24T12:42:17;3.88;;;2.20;;
80621;SDS011;69980;51.914;7.526;2023-07-24T12:44:42;3.08;;;1.35;;
80621;SDS011;69980;51.914;7.526;2023-07-24T12:47:08;2.75;;;1.30;;
80621;SDS011;69980;51.914;7.526;2023-07-24T12:49:33;3.67;;;1.35;;
80621;SDS011;69980;51.914;7.526;2023-07-24T12:51:59;2.10;;;1.30;;
80621;SDS011;69980;51.914;7.526;2023-07-24T12:54:24;5.63;;;1.45;;
80621;SDS011;69980;51.914;7.526;2023-07-24T12:56:50;2.50;;;1.40;;
80621;SDS011;69980;51.914;7.526;2023-07-24T12:59:15;2.88;;;1.50;;
80621;SDS011;69980;51.914;7.526;2023-07-24T13:01:42;3.42;;;1.50;;
80621;SDS011;69980;51.914;7.526;2023-07-24T13:04:08;3.05;;;1.50;;
80621;SDS011;69980;51.914;7.526;2023-07-24T13:06:33;3.03;;;1.83;;
80621;SDS011;69980;51.914;7.526;2023-07-24T13:08:59;2.55;;;1.50;;
80621;SDS011;69980;51.914;7.526;2023-07-24T13:11:24;2.63;;;1.42;;
80621;SDS011;69980;51.914;7.526;2023-07-24T13:13:49;3.53;;;1.75;;
80621;SDS011;69980;51.914;7.526;2023-07-24T13:16:15;3.83;;;1.70;;
80621;SDS011;69980;51.914;7.526;2023-07-24T13:18:40;3.67;;;1.60;;
80621;SDS011;69980;51.914;7.526;2023-07-24T13:21:05;3.97;;;1.67;;
80621;SDS011;69980;51.914;7.526;2023-07-24T13:23:31;2.63;;;1.50;;
80621;SDS011;69980;51.914;7.526;2023-07-24T13:25:56;2.75;;;1.55;;
80621;SDS011;69980;51.914;7.526;2023-07-24T13:28:21;4.35;;;1.80;;
80621;SDS011;69980;51.914;7.526;2023-07-24T13:30:47;2.95;;;1.80;;
80621;SDS011;69980;51.914;7.526;2023-07-24T13:33:12;2.85;;;2.00;;
80621;SDS011;69980;51.914;7.526;2023-07-24T13:35:37;2.75;;;1.70;;
80621;SDS011;69980;51.914;7.526;2023-07-24T13:38:03;2.97;;;1.80;;
80621;SDS011;69980;51.914;7.526;2023-07-24T13:40:28;3.78;;;1.80;;
80621;SDS011;69980;51.914;7.526;2023-07-24T13:42:53;3.00;;;1.73;;
80621;SDS011;69980;51.914;7.526;2023-07-24T13:45:18;4.10;;;1.88;;
80621;SDS011;69980;51.914;7.526;2023-07-24T13:47:44;3.45;;;1.80;;
80621;SDS011;69980;51.914;7.526;2023-07-24T13:50:09;2.78;;;1.95;;
80621;SDS011;69980;51.914;7.526;2023-07-24T13:52:34;3.67;;;2.40;;
80621;SDS011;69980;51.914;7.526;2023-07-24T13:55:00;5.15;;;2.75;;
80621;SDS011;69980;51.914;7.526;2023-07-24T13:57:25;4.00;;;2.75;;
80621;SDS011;69980;51.914;7.526;2023-07-24T13:59:50;3.35;;;2.83;;
80621;SDS011;69980;51.914;7.526;2023-07-24T14:02:16;3.25;;;2.55;;
80621;SDS011;69980;51.914;7.526;2023-07-24T14:04:41;4.72;;;2.83;;
80621;SDS011;69980;51.914;7.526;2023-07-24T14:07:06;4.25;;;3.10;;
80621;SDS011;69980;51.914;7.526;2023-07-24T14:09:32;4.32;;;3.00;;
80621;SDS011;69980;51.914;7.526;2023-07-24T14:11:57;4.60;;;3.08;;
80621;SDS011;69980;51.914;7.526;2023-07-24T14:14:22;3.90;;;2.70;;
80621;SDS011;69980;51.914;7.526;2023-07-24T14:16:47;3.78;;;2.60;;
80621;SDS011;69980;51.914;7.526;2023-07-24T14:19:13;3.35;;;2.40;;
80621;SDS011;69980;51.914;7.526;2023-07-24T14:21:38;4.53;;;2.72;;
80621;SDS011;69980;51.914;7.526;2023-07-24T14:24:03;3.67;;;2.88;;
80621;SDS011;69980;51.914;7.526;2023-07-24T14:26:29;4.18;;;2.60;;
80621;SDS011;69980;51.914;7.526;2023-07-24T14:28:54;4.95;;;2.70;;
80621;SDS011;69980;51.914;7.526;2023-07-24T14:31:20;5.22;;;2.92;;
80621;SDS011;69980;51.914;7.526;2023-07-24T14:33:45;4.75;;;2.70;;
80621;SDS011;69980;51.914;7.526;2023-07-24T14:36:10;3.83;;;2.65;;
80621;SDS011;69980;51.914;7.526;2023-07-24T14:38:35;3.30;;;2.40;;
80621;SDS011;69980;51.914;7.526;2023-07-24T14:41:01;4.97;;;2.72;;
80621;SDS011;69980;51.914;7.526;2023-07-24T14:43:26;3.65;;;2.53;;